Aérodrome :
LOGIN :

S'inscrire | Disclaimer

   EN    FR    IT 

 










Légende :    VFR   VFR Marginal   IFR   IFR Intensif   IFR Très Intensif
Visi : 
Plafond : 
>= 8 km
>= 3000ft
5 à 8 km
1000 à 3000 ft
1500m à 5 km
500 à 1000 ft
800 à 1500m
200 à 500 ft
< 800m
< 200 ft
Symboles :   Orages  Brouillard  Fortes neiges  Fortes précipitations  Vent > 20 kt
SIGMETs :   Divers  Orages  Givrage  Turbulence  Onde Orograph.  Cendres Volcan.







- Altitude de l'aérodrome : 74 ft
- Code IATA : LRH
- Voir les cartes d'approche


LFBH - La Rochelle Ile de Ré

DERNIER METAR :
  • 120330Z AUTO 13008KT 8000 NSC 04/03 Q1019 TEMPO 3000 -RA BKN003

METARs EXPIRÉS :
  • 120300Z AUTO 14006KT CAVOK 04/03 Q1020 TEMPO 3000 -RA BKN003
  • 120230Z AUTO 14005KT CAVOK 04/04 Q1020 TEMPO 3000 -RA BKN003
  • 120200Z AUTO 13007KT 8000 NSC 04/04 Q1020 TEMPO 3000 -RA BKN003
  • 120130Z AUTO 13006KT 7000 NSC 04/04 Q1020 TEMPO 3000 -RA BKN003
  • 120100Z AUTO 12003KT 6000 NSC 03/03 Q1020 TEMPO 2000 BR OVC003

TAF AMD TAF LFBH
Valide du 12 à 00h jusqu'au 13 à 00h UTC


112350Z 1200/1224 10005KT 7000 NSC
PROB40 1200/1203 2000 BR OVC003
PROB40 1203/1212 3000 -RA BKN003
PROB40 1220/1224 3000 BR OVC003
ATIS : +33 5 46 00 13 92
Pas de NOTAMs connus pour ce terrain.
1 SIGMET publié pour la FIR Bordeaux (LFBB) :
 
Turbulence forte
LFBB SIGMET 1 VALID 120400/120800 LFPW
LFBB BORDEAUX FIR/UIR SEV TURB FCST NW OF LINE N4545 W00145 - N4630 W00045 FL160/260 MOV SE 30KT NC=



MET'MAP, la Météo Aéronautique d'un coup d'oeil ! - Copyright ORBIFLY Décembre 2007 - Disclaimer

ORBIFLY MET'MAP TEAM :

Programmation & Développement : Alexandra Zaïnal
Conception & Développement : Baudouin d'Aumeries
Co-Programmation & Développement : Marc-Olivier Méhu
Soutien technique & logistique : Manuel Goepfert

Contact : metmap@orbifly.com




SOURCES & CREDITS :

   NOAA